createdAt,value
2023-03-29T00:01:02.273Z,4.80
2023-03-29T00:03:31.047Z,5.20
2023-03-29T00:06:02.995Z,4.80
2023-03-29T00:08:33.996Z,4.70
2023-03-29T00:11:02.349Z,5.00
2023-03-29T00:13:31.287Z,4.70
2023-03-29T00:15:59.165Z,4.80
2023-03-29T00:18:30.018Z,4.63
2023-03-29T00:20:58.530Z,4.90
2023-03-29T00:23:27.021Z,4.70
2023-03-29T00:25:56.994Z,4.90
2023-03-29T00:28:25.510Z,4.83
2023-03-29T00:30:57.017Z,4.90
2023-03-29T00:33:28.523Z,4.90
2023-03-29T00:36:01.952Z,5.47
2023-03-29T00:38:31.320Z,5.20
2023-03-29T00:41:01.231Z,5.37
2023-03-29T00:43:29.449Z,4.77
2023-03-29T00:45:58.494Z,5.00
2023-03-29T00:48:30.115Z,4.73
2023-03-29T00:51:02.530Z,4.50
2023-03-29T00:53:34.437Z,4.90
2023-03-29T00:56:10.164Z,5.10
2023-03-29T00:58:44.250Z,5.07
2023-03-29T01:01:19.383Z,5.00
2023-03-29T01:03:54.902Z,4.70
2023-03-29T01:06:29.014Z,4.73
2023-03-29T01:09:01.232Z,4.63
2023-03-29T01:11:38.119Z,4.63
2023-03-29T01:14:07.714Z,4.43
2023-03-29T01:16:38.419Z,4.90
2023-03-29T01:19:10.673Z,4.73
2023-03-29T01:21:45.406Z,4.50
2023-03-29T01:24:42.947Z,4.57
2023-03-29T01:27:18.869Z,4.60
2023-03-29T01:29:54.197Z,4.60
2023-03-29T01:32:27.709Z,4.33
2023-03-29T01:35:01.467Z,4.37
2023-03-29T01:37:34.245Z,4.93
2023-03-29T01:40:04.979Z,4.17
2023-03-29T01:42:43.841Z,4.90
2023-03-29T01:45:21.302Z,4.87
2023-03-29T01:47:56.008Z,4.60
2023-03-29T01:50:37.137Z,4.50
2023-03-29T01:53:08.877Z,4.63
2023-03-29T01:55:40.439Z,4.17
2023-03-29T01:58:10.938Z,4.23
2023-03-29T02:00:42.383Z,4.70
2023-03-29T02:03:11.792Z,5.00
2023-03-29T02:05:42.448Z,4.50
2023-03-29T02:08:14.536Z,4.40
2023-03-29T02:10:42.991Z,4.67
2023-03-29T02:13:11.208Z,4.63
2023-03-29T02:15:43.775Z,4.23
2023-03-29T02:18:14.621Z,4.57
2023-03-29T02:20:47.462Z,4.03
2023-03-29T02:23:21.247Z,4.17
2023-03-29T02:25:54.057Z,4.00
2023-03-29T02:28:26.263Z,4.47
2023-03-29T02:31:04.288Z,4.60
2023-03-29T02:33:39.374Z,4.43
2023-03-29T02:36:15.568Z,4.77
2023-03-29T02:38:45.008Z,4.50
2023-03-29T02:41:13.596Z,4.57
2023-03-29T02:43:44.431Z,4.60
2023-03-29T02:46:15.388Z,4.27
2023-03-29T02:48:44.992Z,4.40
2023-03-29T02:51:20.024Z,4.67
2023-03-29T02:53:55.422Z,4.43
2023-03-29T02:56:23.466Z,4.33
2023-03-29T02:58:51.482Z,4.60
2023-03-29T03:01:22.982Z,4.63
2023-03-29T03:03:51.968Z,4.27
2023-03-29T03:06:21.395Z,4.33
2023-03-29T03:08:49.264Z,4.30
2023-03-29T03:11:17.171Z,4.60
2023-03-29T03:13:45.019Z,4.37
2023-03-29T03:16:13.274Z,4.47
2023-03-29T03:18:43.206Z,4.30
2023-03-29T03:21:11.544Z,4.37
2023-03-29T03:23:42.063Z,4.60
2023-03-29T03:26:10.850Z,4.30
2023-03-29T03:28:42.100Z,4.50
2023-03-29T03:31:11.439Z,4.40
2023-03-29T03:33:39.380Z,4.20
2023-03-29T03:36:10.311Z,4.20
2023-03-29T03:38:40.115Z,3.97
2023-03-29T03:41:09.106Z,4.27
2023-03-29T03:43:37.115Z,3.80
2023-03-29T03:46:08.178Z,4.30
2023-03-29T03:48:37.221Z,4.10
2023-03-29T03:51:05.561Z,3.90
2023-03-29T03:53:35.311Z,3.97
2023-03-29T03:56:08.789Z,4.63
2023-03-29T03:58:37.920Z,4.90
2023-03-29T04:01:08.883Z,4.27
2023-03-29T04:03:39.267Z,4.07
2023-03-29T04:06:07.831Z,3.83
2023-03-29T04:08:37.364Z,3.87
2023-03-29T04:11:08.557Z,3.80
2023-03-29T04:13:37.149Z,4.43
2023-03-29T04:16:05.541Z,4.60
2023-03-29T04:18:33.584Z,4.37
2023-03-29T04:21:04.457Z,4.37
2023-03-29T04:23:36.008Z,4.20
2023-03-29T04:26:10.331Z,4.10
2023-03-29T04:28:38.595Z,4.40
2023-03-29T04:31:11.271Z,4.07
2023-03-29T04:33:39.178Z,4.37
2023-03-29T04:36:11.683Z,3.90
2023-03-29T04:38:43.372Z,4.17
2023-03-29T04:41:21.948Z,4.83
2023-03-29T04:43:49.864Z,4.07
2023-03-29T04:46:17.858Z,4.50
2023-03-29T04:48:49.080Z,4.23
2023-03-29T04:51:17.620Z,4.33
2023-03-29T04:54:09.189Z,4.07
2023-03-29T04:57:10.337Z,4.63
2023-03-29T04:59:38.254Z,4.70
2023-03-29T05:02:07.389Z,4.63
2023-03-29T05:04:36.575Z,4.10
2023-03-29T05:07:04.519Z,3.80
2023-03-29T05:09:35.044Z,3.83
2023-03-29T05:12:05.322Z,4.53
2023-03-29T05:14:33.272Z,3.77
2023-03-29T05:17:01.285Z,3.60
2023-03-29T05:19:29.234Z,3.93
2023-03-29T05:21:57.686Z,3.50
2023-03-29T05:24:25.597Z,3.57
2023-03-29T05:26:53.502Z,3.90
2023-03-29T05:29:23.889Z,3.80
2023-03-29T05:31:52.951Z,3.87
2023-03-29T05:34:21.222Z,3.23
2023-03-29T05:36:49.599Z,3.63
2023-03-29T05:39:17.549Z,4.70
2023-03-29T05:41:45.416Z,4.17
2023-03-29T05:44:13.320Z,5.23
2023-03-29T05:46:42.654Z,4.57
2023-03-29T05:49:10.626Z,4.03
2023-03-29T05:51:38.460Z,3.73
2023-03-29T05:54:06.596Z,3.97
2023-03-29T05:56:34.608Z,3.83
2023-03-29T05:59:02.469Z,3.90
2023-03-29T06:01:31.157Z,3.70
2023-03-29T06:04:00.934Z,3.63
2023-03-29T06:06:28.881Z,3.90
2023-03-29T06:08:57.059Z,3.33
2023-03-29T06:11:26.419Z,3.60
2023-03-29T06:13:54.473Z,3.60
2023-03-29T06:16:22.656Z,4.07
2023-03-29T06:18:50.701Z,3.47
2023-03-29T06:21:19.958Z,3.70
2023-03-29T06:23:48.044Z,3.40
2023-03-29T06:26:16.434Z,3.77
2023-03-29T06:28:44.316Z,3.67
2023-03-29T06:31:13.233Z,3.80
2023-03-29T06:33:43.277Z,3.90
2023-03-29T06:36:13.771Z,3.90
2023-03-29T06:38:43.050Z,4.10
2023-03-29T06:41:12.195Z,3.60
2023-03-29T06:43:40.172Z,3.53
2023-03-29T06:46:11.771Z,3.00
2023-03-29T06:48:41.155Z,3.30
2023-03-29T06:51:09.222Z,2.90
2023-03-29T06:53:37.072Z,3.87
2023-03-29T06:56:09.491Z,3.43
2023-03-29T06:58:38.007Z,3.50
2023-03-29T07:01:07.179Z,3.40
2023-03-29T07:03:36.417Z,3.57
2023-03-29T07:06:10.042Z,3.57
2023-03-29T07:08:43.561Z,3.70
2023-03-29T07:11:14.197Z,3.73
2023-03-29T07:13:43.135Z,3.43
2023-03-29T07:16:12.925Z,3.80
2023-03-29T07:18:41.699Z,3.07
2023-03-29T07:21:11.553Z,3.00
2023-03-29T07:23:39.671Z,2.87
2023-03-29T07:26:08.559Z,3.03
2023-03-29T07:28:39.459Z,2.47
2023-03-29T07:31:11.273Z,3.17
2023-03-29T07:33:40.893Z,3.10
2023-03-29T07:36:09.676Z,3.47
2023-03-29T07:38:37.899Z,3.17
2023-03-29T07:41:06.951Z,3.30
2023-03-29T07:43:35.352Z,3.07
2023-03-29T07:46:06.220Z,3.30
2023-03-29T07:48:37.131Z,3.60
2023-03-29T07:51:06.190Z,2.30
2023-03-29T07:53:34.300Z,2.50
2023-03-29T07:56:02.238Z,2.60
2023-03-29T07:58:30.648Z,3.50
2023-03-29T08:01:00.430Z,2.80
2023-03-29T08:03:30.369Z,2.90
2023-03-29T08:05:58.303Z,2.73
2023-03-29T08:08:26.301Z,2.60
2023-03-29T08:10:54.894Z,3.00
2023-03-29T08:13:23.007Z,2.97
2023-03-29T08:15:51.133Z,2.50
2023-03-29T08:18:19.258Z,2.47
2023-03-29T08:20:48.662Z,2.30
2023-03-29T08:23:16.566Z,3.70
2023-03-29T08:25:46.318Z,2.57
2023-03-29T08:28:14.415Z,2.93
2023-03-29T08:30:42.387Z,2.60
2023-03-29T08:33:10.326Z,2.13
2023-03-29T08:35:38.278Z,2.40
2023-03-29T08:38:08.294Z,2.10
2023-03-29T08:40:36.795Z,2.43
2023-03-29T08:43:35.501Z,2.20
2023-03-29T08:46:13.076Z,2.50
2023-03-29T08:48:45.386Z,2.27
2023-03-29T08:51:20.353Z,2.40
2023-03-29T08:53:53.547Z,2.50
2023-03-29T08:56:27.053Z,2.20
2023-03-29T08:58:57.956Z,2.23
2023-03-29T09:01:29.708Z,2.40
2023-03-29T09:04:05.926Z,2.23
2023-03-29T09:06:33.947Z,2.40
2023-03-29T09:09:03.217Z,2.87
2023-03-29T09:11:46.056Z,2.00
2023-03-29T09:14:34.750Z,2.57
2023-03-29T09:17:14.189Z,2.40
2023-03-29T09:19:50.617Z,2.30
2023-03-29T09:22:26.161Z,2.37
2023-03-29T09:25:13.633Z,2.37
2023-03-29T09:27:49.498Z,2.60
2023-03-29T09:30:26.143Z,2.77
2023-03-29T09:32:55.519Z,2.57
2023-03-29T09:35:26.223Z,2.80
2023-03-29T09:37:55.842Z,3.33
2023-03-29T09:40:29.958Z,2.93
2023-03-29T09:42:58.612Z,2.60
2023-03-29T09:45:26.509Z,2.30
2023-03-29T09:47:58.134Z,2.30
2023-03-29T09:50:32.376Z,2.80
2023-03-29T09:53:01.029Z,2.43
2023-03-29T09:55:33.997Z,2.97
2023-03-29T09:58:04.256Z,2.20
2023-03-29T10:00:32.119Z,2.20
2023-03-29T10:03:00.671Z,2.07
2023-03-29T10:05:37.866Z,2.40
2023-03-29T10:08:19.925Z,2.30
2023-03-29T10:10:49.684Z,2.40
2023-03-29T10:13:23.779Z,2.20
2023-03-29T10:15:59.624Z,2.40
2023-03-29T10:18:31.062Z,2.03
2023-03-29T10:21:04.485Z,2.20
2023-03-29T10:23:34.755Z,1.87
2023-03-29T10:26:08.199Z,2.30
2023-03-29T10:28:38.705Z,2.43
2023-03-29T10:31:08.344Z,2.37
2023-03-29T10:33:37.928Z,2.30
2023-03-29T10:36:11.342Z,2.57
2023-03-29T10:38:39.534Z,2.07
2023-03-29T10:41:11.746Z,1.97
2023-03-29T10:43:44.033Z,2.40
2023-03-29T10:46:14.477Z,2.10
2023-03-29T10:48:49.137Z,2.50
2023-03-29T10:51:19.246Z,2.20
2023-03-29T10:53:47.282Z,2.30
2023-03-29T10:56:35.152Z,2.43
2023-03-29T10:59:38.686Z,2.10
2023-03-29T11:02:35.486Z,2.10
2023-03-29T11:05:20.325Z,2.60
2023-03-29T11:08:03.282Z,1.77
2023-03-29T11:10:40.686Z,2.30
2023-03-29T11:13:18.474Z,1.80
2023-03-29T11:15:59.656Z,2.43
2023-03-29T11:18:57.055Z,2.70
2023-03-29T11:21:33.444Z,2.47
2023-03-29T11:24:26.233Z,2.30
2023-03-29T11:27:08.035Z,2.00
2023-03-29T11:29:49.091Z,2.13
2023-03-29T11:32:25.358Z,2.30
2023-03-29T11:35:04.388Z,2.60
2023-03-29T11:37:39.578Z,2.23
2023-03-29T11:40:27.961Z,2.27
2023-03-29T11:42:59.273Z,2.10
2023-03-29T11:45:34.232Z,2.00
2023-03-29T11:48:07.694Z,2.40
2023-03-29T11:50:44.977Z,2.50
2023-03-29T11:53:18.979Z,2.70
2023-03-29T11:55:48.368Z,2.70
2023-03-29T11:58:22.416Z,2.10
2023-03-29T12:00:57.061Z,2.40
2023-03-29T12:03:37.128Z,2.50
2023-03-29T12:06:12.488Z,2.27
2023-03-29T12:08:45.358Z,2.30
2023-03-29T12:11:24.368Z,2.03
2023-03-29T12:13:57.712Z,2.50
2023-03-29T12:16:33.788Z,2.57
2023-03-29T12:19:08.008Z,2.57
2023-03-29T12:21:37.635Z,2.23
2023-03-29T12:24:05.937Z,2.50
2023-03-29T12:27:19.925Z,2.47
2023-03-29T12:30:27.357Z,2.23
2023-03-29T12:33:10.072Z,2.17
2023-03-29T12:35:47.695Z,2.30
2023-03-29T12:38:22.025Z,2.60
2023-03-29T12:40:56.581Z,2.20
2023-03-29T12:43:28.340Z,2.37
2023-03-29T12:45:59.263Z,2.83
2023-03-29T12:48:31.896Z,3.00
2023-03-29T12:51:02.400Z,2.43
2023-03-29T12:53:35.666Z,2.20
2023-03-29T12:56:13.977Z,2.37
2023-03-29T12:58:55.916Z,2.20
2023-03-29T13:01:28.380Z,2.40
2023-03-29T13:04:18.407Z,2.27
2023-03-29T13:07:03.132Z,2.40
2023-03-29T13:09:35.591Z,2.10
2023-03-29T13:12:13.801Z,2.30
2023-03-29T13:14:44.774Z,2.20
2023-03-29T13:17:23.834Z,2.40
2023-03-29T13:20:10.982Z,2.00
2023-03-29T13:22:49.245Z,2.20
2023-03-29T13:25:33.924Z,2.37
2023-03-29T13:28:08.322Z,2.30
2023-03-29T13:30:48.300Z,2.33
2023-03-29T13:33:25.576Z,2.23
2023-03-29T13:36:05.191Z,2.00
2023-03-29T13:38:35.520Z,2.37
2023-03-29T13:41:05.774Z,2.40
2023-03-29T13:43:37.676Z,2.53
2023-03-29T13:46:25.678Z,1.90
2023-03-29T13:49:00.747Z,2.57
2023-03-29T13:51:39.311Z,2.27
2023-03-29T13:54:28.005Z,2.00
2023-03-29T13:57:10.427Z,2.40
2023-03-29T13:59:47.294Z,2.20
2023-03-29T14:02:26.683Z,2.07
2023-03-29T14:04:55.994Z,2.30
2023-03-29T14:07:27.087Z,2.33
2023-03-29T14:09:56.680Z,2.57
2023-03-29T14:12:24.782Z,2.30
2023-03-29T14:14:59.632Z,2.20
2023-03-29T14:17:29.226Z,1.90
2023-03-29T14:20:00.071Z,2.07
2023-03-29T14:22:34.087Z,2.40
2023-03-29T14:25:07.645Z,2.27
2023-03-29T14:27:37.844Z,1.80
2023-03-29T14:30:23.168Z,2.53
2023-03-29T14:32:52.499Z,2.27
2023-03-29T14:35:29.437Z,2.30
2023-03-29T14:37:59.755Z,2.30
2023-03-29T14:40:27.942Z,2.30
2023-03-29T14:42:56.484Z,2.93
2023-03-29T14:45:24.850Z,2.67
2023-03-29T14:47:53.191Z,2.30
2023-03-29T14:50:26.244Z,2.40
2023-03-29T14:52:54.987Z,2.63
2023-03-29T14:55:25.010Z,2.80
2023-03-29T14:57:56.215Z,2.23
2023-03-29T15:00:30.170Z,1.93
2023-03-29T15:03:00.729Z,2.10
2023-03-29T15:05:38.389Z,2.43
2023-03-29T15:08:09.988Z,2.50
2023-03-29T15:10:42.954Z,2.60
2023-03-29T15:13:18.119Z,2.37
2023-03-29T15:15:46.691Z,2.63
2023-03-29T15:18:18.385Z,2.70
2023-03-29T15:20:46.777Z,2.93
2023-03-29T15:23:26.148Z,2.80
2023-03-29T15:25:58.433Z,2.23
2023-03-29T15:28:31.273Z,2.20
2023-03-29T15:31:08.236Z,2.20
2023-03-29T15:33:38.815Z,2.30
2023-03-29T15:36:09.796Z,2.37
2023-03-29T15:38:44.161Z,3.30
2023-03-29T15:41:17.745Z,2.50
2023-03-29T15:43:46.371Z,2.30
2023-03-29T15:46:14.618Z,2.57
2023-03-29T15:48:43.042Z,2.47
2023-03-29T15:51:12.781Z,2.23
2023-03-29T15:53:41.219Z,2.20
2023-03-29T15:56:11.322Z,2.43
2023-03-29T15:58:42.042Z,3.80
2023-03-29T16:01:15.965Z,2.80
2023-03-29T16:03:47.459Z,2.90
2023-03-29T16:06:16.139Z,2.97
2023-03-29T16:08:44.339Z,2.90
2023-03-29T16:11:12.722Z,3.20
2023-03-29T16:13:42.007Z,3.10
2023-03-29T16:16:11.582Z,3.00
2023-03-29T16:18:40.197Z,2.57
2023-03-29T16:21:12.422Z,2.67
2023-03-29T16:23:40.730Z,2.40
2023-03-29T16:26:11.369Z,2.50
2023-03-29T16:28:39.251Z,2.37
2023-03-29T16:31:11.441Z,3.30
2023-03-29T16:33:39.397Z,2.83
2023-03-29T16:36:08.510Z,2.70
2023-03-29T16:38:36.529Z,2.83
2023-03-29T16:41:04.606Z,3.20
2023-03-29T16:43:32.516Z,4.50
2023-03-29T16:46:01.227Z,3.00
2023-03-29T16:48:30.585Z,3.47
2023-03-29T16:50:58.472Z,3.70
2023-03-29T16:53:27.111Z,4.53
2023-03-29T16:55:55.333Z,3.50
2023-03-29T16:58:23.769Z,4.60
2023-03-29T17:00:53.734Z,15.37
2023-03-29T17:03:22.245Z,6.77
2023-03-29T17:05:53.478Z,6.13
2023-03-29T17:08:22.843Z,6.30
2023-03-29T17:10:54.261Z,4.10
2023-03-29T17:13:23.895Z,5.97
2023-03-29T17:15:54.201Z,5.83
2023-03-29T17:18:22.880Z,7.70
2023-03-29T17:20:56.658Z,4.53
2023-03-29T17:23:25.444Z,4.30
2023-03-29T17:25:55.864Z,4.00
2023-03-29T17:28:24.412Z,4.60
2023-03-29T17:30:53.041Z,4.50
2023-03-29T17:33:22.463Z,4.13
2023-03-29T17:35:52.853Z,3.60
2023-03-29T17:38:21.331Z,3.90
2023-03-29T17:40:54.439Z,3.50
2023-03-29T17:43:23.008Z,3.60
2023-03-29T17:45:54.567Z,3.40
2023-03-29T17:48:26.642Z,3.63
2023-03-29T17:50:58.024Z,3.93
2023-03-29T17:53:30.387Z,4.03
2023-03-29T17:56:01.451Z,5.40
2023-03-29T17:58:30.530Z,5.07
2023-03-29T18:00:58.534Z,4.50
2023-03-29T18:03:27.613Z,4.30
2023-03-29T18:05:57.452Z,6.07
2023-03-29T18:08:25.379Z,6.20
2023-03-29T18:10:53.372Z,6.30
2023-03-29T18:13:25.470Z,5.47
2023-03-29T18:15:56.200Z,5.57
2023-03-29T18:18:24.138Z,4.97
2023-03-29T18:20:52.343Z,6.13
2023-03-29T18:23:21.683Z,5.90
2023-03-29T18:25:49.581Z,5.87
2023-03-29T18:28:20.307Z,6.77
2023-03-29T18:30:51.779Z,6.53
2023-03-29T18:33:19.971Z,6.77
2023-03-29T18:35:50.874Z,6.33
2023-03-29T18:38:19.835Z,7.03
2023-03-29T18:40:49.577Z,7.03
2023-03-29T18:43:18.626Z,7.17
2023-03-29T18:45:47.607Z,7.20
2023-03-29T18:48:15.653Z,7.57
2023-03-29T18:50:45.287Z,7.13
2023-03-29T18:53:13.314Z,7.97
2023-03-29T18:55:42.644Z,6.73
2023-03-29T18:58:12.579Z,6.13
2023-03-29T19:00:41.764Z,6.70
2023-03-29T19:03:10.454Z,5.60
2023-03-29T19:05:39.182Z,7.27
2023-03-29T19:08:09.116Z,7.17
2023-03-29T19:10:37.591Z,6.10
2023-03-29T19:13:06.261Z,6.30
2023-03-29T19:15:35.605Z,5.83
2023-03-29T19:18:04.895Z,7.13
2023-03-29T19:20:32.847Z,6.27
2023-03-29T19:23:01.791Z,6.80
2023-03-29T19:25:30.228Z,8.13
2023-03-29T19:27:58.786Z,5.70
2023-03-29T19:30:27.169Z,5.57
2023-03-29T19:32:56.821Z,6.17
2023-03-29T19:35:24.726Z,6.07
2023-03-29T19:37:52.594Z,5.60
2023-03-29T19:40:21.033Z,4.90
2023-03-29T19:42:49.245Z,5.93
2023-03-29T19:45:17.516Z,4.60
2023-03-29T19:47:47.627Z,4.87
2023-03-29T19:50:17.172Z,4.63
2023-03-29T19:52:45.257Z,5.17
2023-03-29T19:55:13.585Z,4.90
2023-03-29T19:57:42.537Z,4.93
2023-03-29T20:00:11.616Z,4.30
2023-03-29T20:02:39.496Z,4.40
2023-03-29T20:05:08.555Z,3.70
2023-03-29T20:07:37.787Z,3.43
2023-03-29T20:10:06.533Z,3.70
2023-03-29T20:12:34.373Z,3.57
2023-03-29T20:15:02.246Z,4.00
2023-03-29T20:17:30.205Z,3.57
2023-03-29T20:19:58.987Z,3.20
2023-03-29T20:22:30.598Z,3.60
2023-03-29T20:25:01.456Z,3.57
2023-03-29T20:27:31.009Z,3.43
2023-03-29T20:29:59.187Z,3.60
2023-03-29T20:32:27.223Z,3.70
2023-03-29T20:34:55.431Z,4.47
2023-03-29T20:37:25.806Z,3.50
2023-03-29T20:39:56.729Z,3.73
2023-03-29T20:42:28.730Z,3.67
2023-03-29T20:44:56.769Z,3.30
2023-03-29T20:47:24.787Z,3.70
2023-03-29T20:49:55.336Z,3.00
2023-03-29T20:52:24.688Z,3.30
2023-03-29T20:54:52.609Z,3.47
2023-03-29T20:57:21.561Z,3.13
2023-03-29T20:59:50.874Z,3.60
2023-03-29T21:02:21.328Z,3.00
2023-03-29T21:04:51.851Z,2.90
2023-03-29T21:07:20.357Z,2.70
2023-03-29T21:09:49.915Z,3.00
2023-03-29T21:12:19.079Z,2.60
2023-03-29T21:14:47.475Z,3.10
2023-03-29T21:17:16.733Z,2.47
2023-03-29T21:19:44.610Z,3.10
2023-03-29T21:22:14.534Z,2.77
2023-03-29T21:24:42.483Z,2.50
2023-03-29T21:27:10.335Z,2.73
2023-03-29T21:29:38.230Z,2.73
2023-03-29T21:32:06.352Z,3.10
2023-03-29T21:34:35.847Z,2.83
2023-03-29T21:37:03.804Z,2.70
2023-03-29T21:39:32.243Z,3.20
2023-03-29T21:42:00.753Z,2.47
2023-03-29T21:44:29.009Z,2.80
2023-03-29T21:46:56.832Z,2.40
2023-03-29T21:49:24.959Z,2.80
2023-03-29T21:51:54.264Z,3.10
2023-03-29T21:54:22.180Z,2.47
2023-03-29T21:56:50.104Z,2.67
2023-03-29T21:59:17.999Z,2.63
2023-03-29T22:01:46.015Z,2.40
2023-03-29T22:04:22.547Z,2.30
2023-03-29T22:06:59.230Z,2.30
2023-03-29T22:09:28.515Z,2.50
2023-03-29T22:11:59.809Z,2.47
2023-03-29T22:14:30.226Z,2.40
2023-03-29T22:16:58.183Z,2.37
2023-03-29T22:19:26.417Z,2.37
2023-03-29T22:22:00.611Z,2.70
2023-03-29T22:24:30.338Z,2.47
2023-03-29T22:26:58.466Z,2.87
2023-03-29T22:29:26.618Z,2.50
2023-03-29T22:31:54.786Z,2.50
2023-03-29T22:34:23.086Z,2.10
2023-03-29T22:36:53.996Z,2.13
2023-03-29T22:39:21.827Z,2.47
2023-03-29T22:41:51.403Z,2.80
2023-03-29T22:44:19.287Z,2.33
2023-03-29T22:46:47.125Z,2.20
2023-03-29T22:49:15.795Z,2.63
2023-03-29T22:51:44.342Z,2.40
2023-03-29T22:54:12.293Z,2.30
2023-03-29T22:56:42.762Z,2.53
2023-03-29T22:59:16.025Z,2.77
2023-03-29T23:01:44.228Z,2.50
2023-03-29T23:04:12.484Z,3.10
2023-03-29T23:06:40.440Z,2.30
2023-03-29T23:09:09.490Z,2.77
2023-03-29T23:11:37.365Z,2.60
2023-03-29T23:14:05.253Z,3.97
2023-03-29T23:16:35.549Z,4.73
2023-03-29T23:19:03.409Z,3.43
2023-03-29T23:21:31.335Z,2.70
2023-03-29T23:24:00.601Z,2.57
2023-03-29T23:26:28.528Z,2.40
2023-03-29T23:28:57.489Z,2.30
2023-03-29T23:31:25.495Z,2.43
2023-03-29T23:33:55.502Z,2.47
2023-03-29T23:36:23.545Z,2.67
2023-03-29T23:38:52.414Z,2.50
2023-03-29T23:41:20.441Z,2.20
2023-03-29T23:43:50.197Z,2.40
2023-03-29T23:46:20.518Z,2.70
2023-03-29T23:48:50.229Z,2.30
2023-03-29T23:51:23.212Z,2.33
2023-03-29T23:53:51.793Z,2.43
2023-03-29T23:56:19.784Z,2.73
2023-03-29T23:58:47.716Z,2.27
